sensor_id;sensor_type;location;lat;lon;timestamp;P1;durP1;ratioP1;P2;durP2;ratioP2
51465;SDS011;37542;50.164;9.086;2022-09-12T00:01:22;4.57;;;3.75;;
51465;SDS011;37542;50.164;9.086;2022-09-12T00:05:14;4.80;;;3.80;;
51465;SDS011;37542;50.164;9.086;2022-09-12T00:09:03;8.00;;;4.75;;
51465;SDS011;37542;50.164;9.086;2022-09-12T00:16:34;5.95;;;4.40;;
51465;SDS011;37542;50.164;9.086;2022-09-12T00:20:29;6.13;;;3.92;;
51465;SDS011;37542;50.164;9.086;2022-09-12T00:24:12;5.35;;;4.22;;
51465;SDS011;37542;50.164;9.086;2022-09-12T00:28:05;4.70;;;4.00;;
51465;SDS011;37542;50.164;9.086;2022-09-12T00:31:46;5.35;;;4.10;;
51465;SDS011;37542;50.164;9.086;2022-09-12T00:35:27;4.72;;;3.67;;
51465;SDS011;37542;50.164;9.086;2022-09-12T00:39:09;4.95;;;4.00;;
51465;SDS011;37542;50.164;9.086;2022-09-12T00:42:56;5.38;;;3.92;;
51465;SDS011;37542;50.164;9.086;2022-09-12T00:46:40;6.97;;;4.13;;
51465;SDS011;37542;50.164;9.086;2022-09-12T00:50:27;5.28;;;4.15;;
51465;SDS011;37542;50.164;9.086;2022-09-12T00:54:11;5.07;;;3.88;;
51465;SDS011;37542;50.164;9.086;2022-09-12T01:01:40;5.38;;;4.28;;
51465;SDS011;37542;50.164;9.086;2022-09-12T01:05:27;5.25;;;4.35;;
51465;SDS011;37542;50.164;9.086;2022-09-12T01:09:16;4.50;;;3.55;;
51465;SDS011;37542;50.164;9.086;2022-09-12T01:13:02;4.80;;;3.85;;
51465;SDS011;37542;50.164;9.086;2022-09-12T01:16:46;5.53;;;4.03;;
51465;SDS011;37542;50.164;9.086;2022-09-12T01:20:49;4.85;;;4.10;;
51465;SDS011;37542;50.164;9.086;2022-09-12T01:25:13;4.72;;;3.72;;
51465;SDS011;37542;50.164;9.086;2022-09-12T01:29:24;6.45;;;3.47;;
51465;SDS011;37542;50.164;9.086;2022-09-12T01:33:50;5.03;;;4.05;;
51465;SDS011;37542;50.164;9.086;2022-09-12T01:37:53;4.55;;;3.80;;
51465;SDS011;37542;50.164;9.086;2022-09-12T01:45:45;5.05;;;4.07;;
51465;SDS011;37542;50.164;9.086;2022-09-12T01:50:24;4.40;;;3.28;;
51465;SDS011;37542;50.164;9.086;2022-09-12T01:53:53;4.45;;;3.75;;
51465;SDS011;37542;50.164;9.086;2022-09-12T01:57:56;5.85;;;3.65;;
51465;SDS011;37542;50.164;9.086;2022-09-12T02:01:52;4.82;;;3.65;;
51465;SDS011;37542;50.164;9.086;2022-09-12T02:05:45;4.65;;;3.88;;
51465;SDS011;37542;50.164;9.086;2022-09-12T02:09:37;4.80;;;3.75;;
51465;SDS011;37542;50.164;9.086;2022-09-12T02:17:23;4.78;;;3.45;;
51465;SDS011;37542;50.164;9.086;2022-09-12T02:21:05;5.00;;;3.42;;
51465;SDS011;37542;50.164;9.086;2022-09-12T02:24:48;5.13;;;3.65;;
51465;SDS011;37542;50.164;9.086;2022-09-12T02:28:35;4.45;;;3.38;;
51465;SDS011;37542;50.164;9.086;2022-09-12T02:36:31;4.80;;;3.90;;
51465;SDS011;37542;50.164;9.086;2022-09-12T02:40:57;6.90;;;3.60;;
51465;SDS011;37542;50.164;9.086;2022-09-12T02:44:38;3.78;;;3.15;;
51465;SDS011;37542;50.164;9.086;2022-09-12T02:48:21;5.18;;;3.55;;
51465;SDS011;37542;50.164;9.086;2022-09-12T02:52:07;4.03;;;3.50;;
51465;SDS011;37542;50.164;9.086;2022-09-12T02:55:49;5.78;;;3.45;;
51465;SDS011;37542;50.164;9.086;2022-09-12T02:59:31;4.65;;;3.60;;
51465;SDS011;37542;50.164;9.086;2022-09-12T03:19:58;3.08;;;2.63;;
51465;SDS011;37542;50.164;9.086;2022-09-12T03:23:59;4.25;;;3.35;;
51465;SDS011;37542;50.164;9.086;2022-09-12T03:27:55;5.25;;;3.85;;
51465;SDS011;37542;50.164;9.086;2022-09-12T03:31:50;5.40;;;3.63;;
51465;SDS011;37542;50.164;9.086;2022-09-12T03:35:36;4.32;;;3.60;;
51465;SDS011;37542;50.164;9.086;2022-09-12T03:39:17;4.60;;;3.90;;
51465;SDS011;37542;50.164;9.086;2022-09-12T03:42:59;4.43;;;3.50;;
51465;SDS011;37542;50.164;9.086;2022-09-12T03:46:40;5.15;;;3.80;;
51465;SDS011;37542;50.164;9.086;2022-09-12T03:50:21;5.65;;;3.80;;
51465;SDS011;37542;50.164;9.086;2022-09-12T03:54:02;4.93;;;3.97;;
51465;SDS011;37542;50.164;9.086;2022-09-12T03:57:43;5.22;;;3.95;;
51465;SDS011;37542;50.164;9.086;2022-09-12T04:01:24;5.05;;;3.28;;
51465;SDS011;37542;50.164;9.086;2022-09-12T04:05:05;4.10;;;3.28;;
51465;SDS011;37542;50.164;9.086;2022-09-12T04:08:49;4.68;;;3.60;;
51465;SDS011;37542;50.164;9.086;2022-09-12T04:12:38;4.88;;;3.30;;
51465;SDS011;37542;50.164;9.086;2022-09-12T04:16:19;3.42;;;2.78;;
51465;SDS011;37542;50.164;9.086;2022-09-12T04:20:00;4.40;;;2.78;;
51465;SDS011;37542;50.164;9.086;2022-09-12T04:23:41;4.85;;;3.50;;
51465;SDS011;37542;50.164;9.086;2022-09-12T04:27:23;5.28;;;3.42;;
51465;SDS011;37542;50.164;9.086;2022-09-12T04:31:08;4.05;;;3.22;;
51465;SDS011;37542;50.164;9.086;2022-09-12T04:35:01;4.30;;;3.08;;
51465;SDS011;37542;50.164;9.086;2022-09-12T04:38:43;7.70;;;3.55;;
51465;SDS011;37542;50.164;9.086;2022-09-12T04:42:26;5.13;;;3.22;;
51465;SDS011;37542;50.164;9.086;2022-09-12T04:46:09;4.65;;;3.40;;
51465;SDS011;37542;50.164;9.086;2022-09-12T04:49:51;3.75;;;3.00;;
51465;SDS011;37542;50.164;9.086;2022-09-12T04:53:32;4.22;;;2.97;;
51465;SDS011;37542;50.164;9.086;2022-09-12T04:57:12;3.80;;;3.10;;
51465;SDS011;37542;50.164;9.086;2022-09-12T05:00:55;5.55;;;3.28;;
51465;SDS011;37542;50.164;9.086;2022-09-12T05:04:47;3.42;;;2.75;;
51465;SDS011;37542;50.164;9.086;2022-09-12T05:18:11;6.22;;;3.45;;
51465;SDS011;37542;50.164;9.086;2022-09-12T05:21:52;5.68;;;3.97;;
51465;SDS011;37542;50.164;9.086;2022-09-12T05:25:46;6.57;;;3.90;;
51465;SDS011;37542;50.164;9.086;2022-09-12T05:29:40;5.57;;;3.33;;
51465;SDS011;37542;50.164;9.086;2022-09-12T05:43:06;7.07;;;3.60;;
51465;SDS011;37542;50.164;9.086;2022-09-12T05:46:54;4.68;;;3.58;;
51465;SDS011;37542;50.164;9.086;2022-09-12T05:50:41;4.68;;;3.50;;
51465;SDS011;37542;50.164;9.086;2022-09-12T05:54:22;4.38;;;3.35;;
51465;SDS011;37542;50.164;9.086;2022-09-12T05:58:03;5.25;;;3.60;;
51465;SDS011;37542;50.164;9.086;2022-09-12T06:01:44;4.30;;;3.20;;
51465;SDS011;37542;50.164;9.086;2022-09-12T06:05:25;4.13;;;3.22;;
51465;SDS011;37542;50.164;9.086;2022-09-12T06:09:06;4.15;;;3.17;;
51465;SDS011;37542;50.164;9.086;2022-09-12T06:12:49;4.00;;;3.15;;
51465;SDS011;37542;50.164;9.086;2022-09-12T06:35:02;6.25;;;3.35;;
51465;SDS011;37542;50.164;9.086;2022-09-12T06:38:44;4.10;;;3.22;;
51465;SDS011;37542;50.164;9.086;2022-09-12T06:42:25;3.55;;;2.85;;
51465;SDS011;37542;50.164;9.086;2022-09-12T06:46:08;5.90;;;3.63;;
51465;SDS011;37542;50.164;9.086;2022-09-12T06:51:00;4.45;;;3.53;;
51465;SDS011;37542;50.164;9.086;2022-09-12T06:54:49;4.97;;;3.65;;
51465;SDS011;37542;50.164;9.086;2022-09-12T06:58:45;6.43;;;3.45;;
51465;SDS011;37542;50.164;9.086;2022-09-12T07:02:38;3.65;;;2.97;;
51465;SDS011;37542;50.164;9.086;2022-09-12T07:06:19;4.10;;;3.28;;
51465;SDS011;37542;50.164;9.086;2022-09-12T07:10:08;4.18;;;3.38;;
51465;SDS011;37542;50.164;9.086;2022-09-12T07:13:54;4.53;;;3.30;;
51465;SDS011;37542;50.164;9.086;2022-09-12T07:21:19;3.88;;;3.10;;
51465;SDS011;37542;50.164;9.086;2022-09-12T07:25:00;4.65;;;3.20;;
51465;SDS011;37542;50.164;9.086;2022-09-12T07:28:42;6.28;;;3.63;;
51465;SDS011;37542;50.164;9.086;2022-09-12T07:32:23;4.20;;;3.20;;
51465;SDS011;37542;50.164;9.086;2022-09-12T07:36:05;4.45;;;3.75;;
51465;SDS011;37542;50.164;9.086;2022-09-12T07:39:50;5.35;;;3.33;;
51465;SDS011;37542;50.164;9.086;2022-09-12T07:43:31;3.88;;;3.17;;
51465;SDS011;37542;50.164;9.086;2022-09-12T07:47:21;3.92;;;3.30;;
51465;SDS011;37542;50.164;9.086;2022-09-12T07:51:02;4.35;;;3.42;;
51465;SDS011;37542;50.164;9.086;2022-09-12T07:54:46;4.25;;;3.33;;
51465;SDS011;37542;50.164;9.086;2022-09-12T07:58:27;3.63;;;3.10;;
51465;SDS011;37542;50.164;9.086;2022-09-12T08:02:12;3.83;;;3.05;;
51465;SDS011;37542;50.164;9.086;2022-09-12T08:05:59;3.35;;;2.90;;
51465;SDS011;37542;50.164;9.086;2022-09-12T08:10:25;3.50;;;3.05;;
51465;SDS011;37542;50.164;9.086;2022-09-12T08:14:32;7.13;;;3.65;;
51465;SDS011;37542;50.164;9.086;2022-09-12T08:19:02;3.50;;;2.88;;
51465;SDS011;37542;50.164;9.086;2022-09-12T08:22:52;3.88;;;2.97;;
51465;SDS011;37542;50.164;9.086;2022-09-12T08:27:41;4.78;;;2.83;;
51465;SDS011;37542;50.164;9.086;2022-09-12T08:31:25;5.38;;;2.88;;
51465;SDS011;37542;50.164;9.086;2022-09-12T08:40:16;3.70;;;3.28;;
51465;SDS011;37542;50.164;9.086;2022-09-12T08:48:09;4.75;;;3.47;;
51465;SDS011;37542;50.164;9.086;2022-09-12T08:56:41;3.95;;;3.30;;
51465;SDS011;37542;50.164;9.086;2022-09-12T09:00:23;3.65;;;3.00;;
51465;SDS011;37542;50.164;9.086;2022-09-12T09:16:47;4.40;;;3.55;;
51465;SDS011;37542;50.164;9.086;2022-09-12T09:24:31;3.90;;;3.27;;
51465;SDS011;37542;50.164;9.086;2022-09-12T09:28:29;5.82;;;3.50;;
51465;SDS011;37542;50.164;9.086;2022-09-12T09:32:36;4.65;;;3.80;;
51465;SDS011;37542;50.164;9.086;2022-09-12T09:36:33;4.30;;;3.67;;
51465;SDS011;37542;50.164;9.086;2022-09-12T09:40:31;6.25;;;3.90;;
51465;SDS011;37542;50.164;9.086;2022-09-12T09:45:10;5.05;;;3.53;;
51465;SDS011;37542;50.164;9.086;2022-09-12T09:48:55;6.70;;;3.67;;
51465;SDS011;37542;50.164;9.086;2022-09-12T09:52:38;3.92;;;3.42;;
51465;SDS011;37542;50.164;9.086;2022-09-12T10:04:32;5.75;;;3.47;;
51465;SDS011;37542;50.164;9.086;2022-09-12T10:08:25;4.70;;;3.90;;
51465;SDS011;37542;50.164;9.086;2022-09-12T10:12:25;4.70;;;3.83;;
51465;SDS011;37542;50.164;9.086;2022-09-12T10:16:18;4.35;;;3.90;;
51465;SDS011;37542;50.164;9.086;2022-09-12T10:20:03;4.47;;;3.60;;
51465;SDS011;37542;50.164;9.086;2022-09-12T10:41:47;4.18;;;3.47;;
51465;SDS011;37542;50.164;9.086;2022-09-12T10:49:22;6.40;;;3.67;;
51465;SDS011;37542;50.164;9.086;2022-09-12T10:53:18;5.13;;;3.67;;
51465;SDS011;37542;50.164;9.086;2022-09-12T11:02:38;3.92;;;3.38;;
51465;SDS011;37542;50.164;9.086;2022-09-12T11:06:57;3.42;;;2.97;;
51465;SDS011;37542;50.164;9.086;2022-09-12T11:58:01;3.72;;;2.80;;
51465;SDS011;37542;50.164;9.086;2022-09-12T12:16:36;3.80;;;2.40;;
51465;SDS011;37542;50.164;9.086;2022-09-12T12:24:19;2.90;;;2.53;;
51465;SDS011;37542;50.164;9.086;2022-09-12T12:28:08;3.20;;;2.70;;
51465;SDS011;37542;50.164;9.086;2022-09-12T12:36:03;3.33;;;2.70;;
51465;SDS011;37542;50.164;9.086;2022-09-12T12:45:43;2.78;;;2.40;;
51465;SDS011;37542;50.164;9.086;2022-09-12T12:58:33;3.53;;;2.50;;
51465;SDS011;37542;50.164;9.086;2022-09-12T13:27:58;2.95;;;2.60;;
51465;SDS011;37542;50.164;9.086;2022-09-12T13:31:55;3.88;;;2.60;;
51465;SDS011;37542;50.164;9.086;2022-09-12T13:36:35;2.97;;;2.67;;
51465;SDS011;37542;50.164;9.086;2022-09-12T13:52:55;3.67;;;2.50;;
51465;SDS011;37542;50.164;9.086;2022-09-12T14:05:10;2.63;;;2.30;;
51465;SDS011;37542;50.164;9.086;2022-09-12T14:13:36;3.45;;;2.22;;
51465;SDS011;37542;50.164;9.086;2022-09-12T14:21:40;3.75;;;2.38;;
51465;SDS011;37542;50.164;9.086;2022-09-12T14:25:22;2.40;;;2.05;;
51465;SDS011;37542;50.164;9.086;2022-09-12T14:29:04;3.03;;;2.33;;
51465;SDS011;37542;50.164;9.086;2022-09-12T14:43:33;2.85;;;2.20;;
51465;SDS011;37542;50.164;9.086;2022-09-12T14:53:45;2.38;;;2.13;;
51465;SDS011;37542;50.164;9.086;2022-09-12T14:57:38;2.40;;;1.90;;
51465;SDS011;37542;50.164;9.086;2022-09-12T15:01:26;3.30;;;2.15;;
51465;SDS011;37542;50.164;9.086;2022-09-12T15:05:28;2.60;;;2.40;;
51465;SDS011;37542;50.164;9.086;2022-09-12T15:09:30;2.20;;;2.00;;
51465;SDS011;37542;50.164;9.086;2022-09-12T15:13:17;3.83;;;2.60;;
51465;SDS011;37542;50.164;9.086;2022-09-12T15:17:01;2.83;;;2.30;;
51465;SDS011;37542;50.164;9.086;2022-09-12T15:20:42;2.88;;;2.42;;
51465;SDS011;37542;50.164;9.086;2022-09-12T15:24:26;3.17;;;2.50;;
51465;SDS011;37542;50.164;9.086;2022-09-12T15:28:12;2.80;;;2.30;;
51465;SDS011;37542;50.164;9.086;2022-09-12T15:32:34;2.53;;;1.98;;
51465;SDS011;37542;50.164;9.086;2022-09-12T15:36:16;2.67;;;2.25;;
51465;SDS011;37542;50.164;9.086;2022-09-12T15:40:11;3.75;;;2.97;;
51465;SDS011;37542;50.164;9.086;2022-09-12T15:43:52;2.90;;;2.58;;
51465;SDS011;37542;50.164;9.086;2022-09-12T15:47:33;4.03;;;2.30;;
51465;SDS011;37542;50.164;9.086;2022-09-12T15:51:14;2.92;;;2.22;;
51465;SDS011;37542;50.164;9.086;2022-09-12T15:54:57;3.00;;;2.60;;
51465;SDS011;37542;50.164;9.086;2022-09-12T15:58:38;4.47;;;2.20;;
51465;SDS011;37542;50.164;9.086;2022-09-12T16:02:22;3.22;;;2.58;;
51465;SDS011;37542;50.164;9.086;2022-09-12T16:06:03;2.90;;;2.53;;
51465;SDS011;37542;50.164;9.086;2022-09-12T16:09:47;2.80;;;2.10;;
51465;SDS011;37542;50.164;9.086;2022-09-12T16:13:39;2.93;;;2.33;;
51465;SDS011;37542;50.164;9.086;2022-09-12T16:17:20;4.55;;;2.28;;
51465;SDS011;37542;50.164;9.086;2022-09-12T16:21:01;2.60;;;2.30;;
51465;SDS011;37542;50.164;9.086;2022-09-12T16:24:41;2.67;;;2.20;;
51465;SDS011;37542;50.164;9.086;2022-09-12T16:28:22;3.28;;;2.38;;
51465;SDS011;37542;50.164;9.086;2022-09-12T16:32:03;2.40;;;2.20;;
51465;SDS011;37542;50.164;9.086;2022-09-12T16:35:47;3.17;;;2.15;;
51465;SDS011;37542;50.164;9.086;2022-09-12T16:40:37;2.65;;;2.40;;
51465;SDS011;37542;50.164;9.086;2022-09-12T16:44:18;2.92;;;2.42;;
51465;SDS011;37542;50.164;9.086;2022-09-12T16:48:01;3.10;;;2.28;;
51465;SDS011;37542;50.164;9.086;2022-09-12T16:51:46;2.75;;;2.40;;
51465;SDS011;37542;50.164;9.086;2022-09-12T16:55:29;3.20;;;2.50;;
51465;SDS011;37542;50.164;9.086;2022-09-12T16:59:11;2.88;;;2.50;;
51465;SDS011;37542;50.164;9.086;2022-09-12T17:02:55;3.25;;;2.53;;
51465;SDS011;37542;50.164;9.086;2022-09-12T17:06:46;3.47;;;2.80;;
51465;SDS011;37542;50.164;9.086;2022-09-12T17:10:27;2.90;;;2.38;;
51465;SDS011;37542;50.164;9.086;2022-09-12T17:14:18;2.67;;;2.15;;
51465;SDS011;37542;50.164;9.086;2022-09-12T17:18:41;2.95;;;2.50;;
51465;SDS011;37542;50.164;9.086;2022-09-12T17:22:40;4.10;;;2.63;;
51465;SDS011;37542;50.164;9.086;2022-09-12T17:26:21;3.45;;;2.70;;
51465;SDS011;37542;50.164;9.086;2022-09-12T17:30:02;3.30;;;2.40;;
51465;SDS011;37542;50.164;9.086;2022-09-12T17:33:50;3.55;;;3.00;;
51465;SDS011;37542;50.164;9.086;2022-09-12T17:38:11;3.83;;;3.00;;
51465;SDS011;37542;50.164;9.086;2022-09-12T17:42:47;3.50;;;2.58;;
51465;SDS011;37542;50.164;9.086;2022-09-12T18:00:19;3.00;;;2.60;;
51465;SDS011;37542;50.164;9.086;2022-09-12T18:04:41;3.35;;;2.60;;
51465;SDS011;37542;50.164;9.086;2022-09-12T18:14:11;4.63;;;2.95;;
51465;SDS011;37542;50.164;9.086;2022-09-12T18:18:27;4.45;;;2.97;;
51465;SDS011;37542;50.164;9.086;2022-09-12T18:33:02;4.10;;;3.47;;
51465;SDS011;37542;50.164;9.086;2022-09-12T18:42:19;7.47;;;4.85;;
51465;SDS011;37542;50.164;9.086;2022-09-12T18:46:16;9.10;;;4.28;;
51465;SDS011;37542;50.164;9.086;2022-09-12T18:50:07;4.45;;;3.20;;
51465;SDS011;37542;50.164;9.086;2022-09-12T18:54:10;7.07;;;3.47;;
51465;SDS011;37542;50.164;9.086;2022-09-12T18:57:53;5.70;;;3.92;;
51465;SDS011;37542;50.164;9.086;2022-09-12T19:01:35;4.47;;;3.47;;
51465;SDS011;37542;50.164;9.086;2022-09-12T19:05:17;3.70;;;2.85;;
51465;SDS011;37542;50.164;9.086;2022-09-12T19:09:01;3.92;;;2.55;;
51465;SDS011;37542;50.164;9.086;2022-09-12T19:12:45;4.35;;;3.20;;
51465;SDS011;37542;50.164;9.086;2022-09-12T19:16:26;4.50;;;3.10;;
51465;SDS011;37542;50.164;9.086;2022-09-12T19:20:08;4.13;;;3.10;;
51465;SDS011;37542;50.164;9.086;2022-09-12T19:23:49;4.20;;;2.72;;
51465;SDS011;37542;50.164;9.086;2022-09-12T19:31:16;6.72;;;2.90;;
51465;SDS011;37542;50.164;9.086;2022-09-12T19:35:04;4.07;;;3.50;;
51465;SDS011;37542;50.164;9.086;2022-09-12T19:38:50;4.07;;;3.05;;
51465;SDS011;37542;50.164;9.086;2022-09-12T19:42:31;4.97;;;3.38;;
51465;SDS011;37542;50.164;9.086;2022-09-12T19:46:23;3.97;;;3.13;;
51465;SDS011;37542;50.164;9.086;2022-09-12T19:50:05;4.43;;;3.10;;
51465;SDS011;37542;50.164;9.086;2022-09-12T19:53:46;4.18;;;2.45;;
51465;SDS011;37542;50.164;9.086;2022-09-12T19:57:29;3.45;;;2.40;;
51465;SDS011;37542;50.164;9.086;2022-09-12T20:01:19;4.20;;;2.92;;
51465;SDS011;37542;50.164;9.086;2022-09-12T20:05:09;4.32;;;2.95;;
51465;SDS011;37542;50.164;9.086;2022-09-12T20:08:55;3.22;;;2.63;;
51465;SDS011;37542;50.164;9.086;2022-09-12T20:16:38;4.15;;;2.80;;
51465;SDS011;37542;50.164;9.086;2022-09-12T20:20:19;3.67;;;3.05;;
51465;SDS011;37542;50.164;9.086;2022-09-12T20:24:05;3.97;;;3.22;;
51465;SDS011;37542;50.164;9.086;2022-09-12T20:27:50;4.07;;;2.70;;
51465;SDS011;37542;50.164;9.086;2022-09-12T20:31:34;4.30;;;2.50;;
51465;SDS011;37542;50.164;9.086;2022-09-12T20:35:28;4.00;;;3.08;;
51465;SDS011;37542;50.164;9.086;2022-09-12T20:44:10;4.28;;;3.25;;
51465;SDS011;37542;50.164;9.086;2022-09-12T20:47:52;4.35;;;3.00;;
51465;SDS011;37542;50.164;9.086;2022-09-12T20:51:34;4.30;;;3.20;;
51465;SDS011;37542;50.164;9.086;2022-09-12T20:55:15;4.20;;;3.05;;
51465;SDS011;37542;50.164;9.086;2022-09-12T20:58:56;3.60;;;3.05;;
51465;SDS011;37542;50.164;9.086;2022-09-12T21:02:38;5.60;;;3.67;;
51465;SDS011;37542;50.164;9.086;2022-09-12T21:06:18;4.53;;;3.15;;
51465;SDS011;37542;50.164;9.086;2022-09-12T21:10:01;4.53;;;3.50;;
51465;SDS011;37542;50.164;9.086;2022-09-12T21:13:41;4.20;;;3.50;;
51465;SDS011;37542;50.164;9.086;2022-09-12T21:17:22;4.57;;;3.50;;
51465;SDS011;37542;50.164;9.086;2022-09-12T21:21:04;5.45;;;3.55;;
51465;SDS011;37542;50.164;9.086;2022-09-12T21:24:45;5.25;;;3.63;;
51465;SDS011;37542;50.164;9.086;2022-09-12T21:28:26;4.10;;;3.38;;
51465;SDS011;37542;50.164;9.086;2022-09-12T21:32:07;4.80;;;3.65;;
51465;SDS011;37542;50.164;9.086;2022-09-12T21:35:48;4.95;;;3.60;;
51465;SDS011;37542;50.164;9.086;2022-09-12T21:39:29;3.83;;;3.28;;
51465;SDS011;37542;50.164;9.086;2022-09-12T21:43:10;7.20;;;3.85;;
51465;SDS011;37542;50.164;9.086;2022-09-12T21:46:51;4.55;;;3.60;;
51465;SDS011;37542;50.164;9.086;2022-09-12T21:50:32;4.47;;;3.30;;
51465;SDS011;37542;50.164;9.086;2022-09-12T21:54:12;5.05;;;3.85;;
51465;SDS011;37542;50.164;9.086;2022-09-12T21:57:53;3.75;;;3.13;;
51465;SDS011;37542;50.164;9.086;2022-09-12T22:01:34;4.45;;;3.67;;
51465;SDS011;37542;50.164;9.086;2022-09-12T22:05:15;3.92;;;3.40;;
51465;SDS011;37542;50.164;9.086;2022-09-12T22:08:57;5.43;;;3.28;;
51465;SDS011;37542;50.164;9.086;2022-09-12T22:12:37;4.00;;;3.30;;
51465;SDS011;37542;50.164;9.086;2022-09-12T22:16:19;4.20;;;3.70;;
51465;SDS011;37542;50.164;9.086;2022-09-12T22:20:00;4.15;;;3.58;;
51465;SDS011;37542;50.164;9.086;2022-09-12T22:23:41;4.53;;;3.47;;
51465;SDS011;37542;50.164;9.086;2022-09-12T22:27:41;4.63;;;2.97;;
51465;SDS011;37542;50.164;9.086;2022-09-12T22:31:21;5.10;;;3.15;;
51465;SDS011;37542;50.164;9.086;2022-09-12T22:35:03;4.45;;;3.50;;
51465;SDS011;37542;50.164;9.086;2022-09-12T22:38:44;5.47;;;3.70;;
51465;SDS011;37542;50.164;9.086;2022-09-12T22:42:25;4.10;;;3.20;;
51465;SDS011;37542;50.164;9.086;2022-09-12T22:46:09;4.10;;;3.13;;
51465;SDS011;37542;50.164;9.086;2022-09-12T22:49:53;3.95;;;3.13;;
51465;SDS011;37542;50.164;9.086;2022-09-12T22:53:34;3.85;;;3.17;;
51465;SDS011;37542;50.164;9.086;2022-09-12T22:57:16;5.47;;;3.65;;
51465;SDS011;37542;50.164;9.086;2022-09-12T23:00:57;4.32;;;3.20;;
51465;SDS011;37542;50.164;9.086;2022-09-12T23:04:37;4.90;;;3.50;;
51465;SDS011;37542;50.164;9.086;2022-09-12T23:08:18;4.68;;;3.45;;
51465;SDS011;37542;50.164;9.086;2022-09-12T23:11:59;4.45;;;3.20;;
51465;SDS011;37542;50.164;9.086;2022-09-12T23:15:40;5.10;;;3.35;;
51465;SDS011;37542;50.164;9.086;2022-09-12T23:19:21;3.90;;;3.17;;
51465;SDS011;37542;50.164;9.086;2022-09-12T23:23:01;4.55;;;3.53;;
51465;SDS011;37542;50.164;9.086;2022-09-12T23:26:42;4.40;;;3.42;;
51465;SDS011;37542;50.164;9.086;2022-09-12T23:30:23;4.57;;;3.17;;
51465;SDS011;37542;50.164;9.086;2022-09-12T23:34:04;6.55;;;3.13;;
51465;SDS011;37542;50.164;9.086;2022-09-12T23:37:45;4.45;;;3.42;;
51465;SDS011;37542;50.164;9.086;2022-09-12T23:41:26;4.57;;;3.35;;
51465;SDS011;37542;50.164;9.086;2022-09-12T23:45:07;5.00;;;3.58;;
51465;SDS011;37542;50.164;9.086;2022-09-12T23:48:49;4.55;;;3.40;;
51465;SDS011;37542;50.164;9.086;2022-09-12T23:52:32;4.55;;;3.45;;
51465;SDS011;37542;50.164;9.086;2022-09-12T23:56:13;5.45;;;3.42;;
51465;SDS011;37542;50.164;9.086;2022-09-12T23:59:53;4.43;;;3.35;;
